createdAt,value
2019-04-06T00:00:58.235Z,52043.51
2019-04-06T00:04:06.916Z,52059.28
2019-04-06T00:07:15.445Z,52032.67
2019-04-06T00:10:34.278Z,52062.23
2019-04-06T00:13:44.037Z,52065.20
2019-04-06T00:16:52.529Z,52047.45
2019-04-06T00:20:01.239Z,52048.44
2019-04-06T00:23:09.956Z,52085.89
2019-04-06T00:26:28.846Z,52018.87
2019-04-06T00:29:48.205Z,52039.57
2019-04-06T00:33:03.841Z,52034.64
2019-04-06T00:36:13.042Z,52058.29
2019-04-06T00:39:21.794Z,52059.28
2019-04-06T00:42:30.321Z,52024.78
2019-04-06T00:45:49.172Z,52060.27
2019-04-06T00:48:57.775Z,52060.27
2019-04-06T00:52:09.419Z,51995.21
2019-04-06T00:55:18.050Z,52026.75
2019-04-06T00:58:26.657Z,52032.67
2019-04-06T01:01:45.409Z,52048.44
2019-04-06T01:04:54.086Z,52042.52
2019-04-06T01:08:02.687Z,52024.78
2019-04-06T01:11:11.411Z,52050.41
2019-04-06T01:14:20.020Z,52061.25
2019-04-06T01:17:28.565Z,52036.61
2019-04-06T01:20:37.262Z,52056.32
2019-04-06T01:23:46.078Z,52078.99
2019-04-06T01:26:54.606Z,52070.12
2019-04-06T01:30:14.261Z,52032.67
2019-04-06T01:33:22.876Z,52048.44
2019-04-06T01:36:41.735Z,52049.42
2019-04-06T01:39:50.433Z,52068.15
2019-04-06T01:42:59.088Z,52053.37
2019-04-06T01:46:07.731Z,52056.32
2019-04-06T01:49:16.386Z,52056.32
2019-04-06T01:52:25.182Z,52048.44
2019-04-06T01:55:33.798Z,52040.55
2019-04-06T01:58:42.404Z,52064.21
2019-04-06T02:01:55.380Z,52073.08
2019-04-06T02:05:04.616Z,52060.27
2019-04-06T02:08:13.995Z,52049.42
2019-04-06T02:11:24.003Z,52044.49
2019-04-06T02:14:32.731Z,52057.31
2019-04-06T02:17:51.536Z,52040.55
2019-04-06T02:21:00.322Z,52032.67
2019-04-06T02:24:09.128Z,52077.02
2019-04-06T02:27:17.947Z,52087.86
2019-04-06T02:30:33.378Z,52024.78
2019-04-06T02:34:01.316Z,52016.89
2019-04-06T02:37:22.922Z,52029.71
2019-04-06T02:41:02.806Z,52077.02
2019-04-06T02:44:11.451Z,52057.31
2019-04-06T02:47:20.087Z,52030.70
2019-04-06T02:50:28.809Z,52076.04
2019-04-06T02:53:47.716Z,52063.22
2019-04-06T02:56:56.349Z,52042.52
2019-04-06T03:00:06.336Z,52077.02
2019-04-06T03:03:15.149Z,52039.57
2019-04-06T03:06:23.775Z,52063.22
2019-04-06T03:09:33.208Z,52047.45
2019-04-06T03:12:41.753Z,52015.91
2019-04-06T03:15:50.435Z,52012.95
2019-04-06T03:18:58.953Z,52066.18
2019-04-06T03:22:07.590Z,52039.57
2019-04-06T03:25:16.252Z,52049.42
2019-04-06T03:28:24.550Z,52049.42
2019-04-06T03:31:33.321Z,52044.49
2019-04-06T03:34:52.653Z,52055.34
2019-04-06T03:38:01.607Z,52065.20
2019-04-06T03:41:20.833Z,52066.18
2019-04-06T03:44:29.673Z,52046.46
2019-04-06T03:47:38.600Z,52087.86
2019-04-06T03:50:57.782Z,52029.71
2019-04-06T03:54:06.441Z,52041.54
2019-04-06T03:57:16.937Z,52058.29
2019-04-06T04:00:25.424Z,52036.61
2019-04-06T04:03:34.071Z,52058.29
2019-04-06T04:06:42.671Z,52084.91
2019-04-06T04:09:51.289Z,52038.58
2019-04-06T04:13:00.197Z,52073.08
2019-04-06T04:16:08.788Z,52054.35
2019-04-06T04:19:17.420Z,52032.67
2019-04-06T04:22:36.704Z,52072.09
2019-04-06T04:25:45.229Z,52065.20
2019-04-06T04:29:04.554Z,52012.95
2019-04-06T04:32:13.466Z,52042.52
2019-04-06T04:35:23.043Z,52061.25
2019-04-06T04:38:31.803Z,52055.34
2019-04-06T04:41:40.715Z,52052.38
2019-04-06T04:44:49.472Z,52068.15
2019-04-06T04:47:58.084Z,52065.20
2019-04-06T04:51:06.700Z,52099.69
2019-04-06T04:54:25.498Z,52050.41
2019-04-06T04:57:40.076Z,52084.91
2019-04-06T05:00:44.526Z,52087.86
2019-04-06T05:03:53.314Z,52071.11
2019-04-06T05:07:01.921Z,52085.89
2019-04-06T05:10:10.571Z,52037.59
2019-04-06T05:13:19.197Z,52083.92
2019-04-06T05:16:27.931Z,52072.09
2019-04-06T05:19:36.544Z,52059.28
2019-04-06T05:22:45.187Z,52046.46
2019-04-06T05:26:04.255Z,52028.72
2019-04-06T05:29:12.911Z,52063.22
2019-04-06T05:32:21.555Z,52043.51
2019-04-06T05:35:30.193Z,52062.23
2019-04-06T05:38:38.829Z,52077.02
2019-04-06T05:41:47.487Z,52071.11
2019-04-06T05:44:56.113Z,52048.44
2019-04-06T05:48:04.754Z,52046.46
2019-04-06T05:51:13.376Z,52040.55
2019-04-06T05:54:32.243Z,52045.48
2019-04-06T05:57:40.879Z,52067.16
2019-04-06T06:00:49.412Z,52064.21
2019-04-06T06:03:58.038Z,52067.16
2019-04-06T06:07:06.991Z,52066.18
2019-04-06T06:10:15.667Z,52040.55
2019-04-06T06:13:24.318Z,52046.46
2019-04-06T06:16:32.877Z,52065.20
2019-04-06T06:19:41.510Z,52090.82
2019-04-06T06:23:00.402Z,52033.65
2019-04-06T06:26:08.937Z,52053.37
2019-04-06T06:29:17.714Z,52055.34
2019-04-06T06:32:26.701Z,52103.63
2019-04-06T06:35:35.003Z,52078.99
2019-04-06T06:38:43.525Z,52070.12
2019-04-06T06:41:52.204Z,52045.48
2019-04-06T06:45:00.849Z,52064.21
2019-04-06T06:48:09.839Z,52044.49
2019-04-06T06:51:18.713Z,52050.41
2019-04-06T06:54:27.509Z,52056.32
2019-04-06T06:57:36.210Z,52065.20
2019-04-06T07:00:45.471Z,52089.84
2019-04-06T07:03:54.130Z,52050.41
2019-04-06T07:07:02.852Z,52071.11
2019-04-06T07:10:12.275Z,52040.55
2019-04-06T07:13:20.979Z,52051.39
2019-04-06T07:16:32.907Z,52068.15
2019-04-06T07:19:41.553Z,52077.02
2019-04-06T07:22:50.285Z,52045.48
2019-04-06T07:25:59.141Z,52062.23
2019-04-06T07:29:07.999Z,52026.75
2019-04-06T07:32:16.638Z,52089.84
2019-04-06T07:35:25.311Z,52043.51
2019-04-06T07:38:33.696Z,52053.37
2019-04-06T07:41:52.703Z,52036.61
2019-04-06T07:45:01.291Z,52071.11
2019-04-06T07:48:10.012Z,52099.69
2019-04-06T07:51:18.629Z,52059.28
2019-04-06T07:54:27.284Z,52062.23
2019-04-06T07:57:37.705Z,52059.28
2019-04-06T08:00:46.629Z,52059.28
2019-04-06T08:03:55.332Z,52029.71
2019-04-06T08:07:04.007Z,51968.60
2019-04-06T08:10:12.769Z,52038.58
2019-04-06T08:13:21.572Z,51993.24
2019-04-06T08:16:30.325Z,51993.24
2019-04-06T08:19:38.965Z,52037.59
2019-04-06T08:22:47.580Z,52048.44
2019-04-06T08:26:06.742Z,51995.21
2019-04-06T08:29:16.408Z,51997.18
2019-04-06T08:32:24.967Z,52016.89
2019-04-06T08:35:33.685Z,52056.32
2019-04-06T08:38:52.627Z,52044.49
2019-04-06T08:42:01.477Z,52011.96
2019-04-06T08:45:10.340Z,52041.54
2019-04-06T08:48:18.931Z,52051.39
2019-04-06T08:51:27.619Z,52037.59
2019-04-06T08:54:36.190Z,52057.31
2019-04-06T08:57:44.777Z,52044.49
2019-04-06T09:00:53.347Z,52038.58
2019-04-06T09:04:01.880Z,52010.00
2019-04-06T09:07:20.841Z,52028.72
2019-04-06T09:10:29.541Z,52048.44
2019-04-06T09:13:40.357Z,52037.59
2019-04-06T09:16:48.451Z,52021.82
2019-04-06T09:19:57.040Z,52041.54
2019-04-06T09:23:05.665Z,52057.31
2019-04-06T09:26:14.201Z,52040.55
2019-04-06T09:29:33.005Z,52010.98
2019-04-06T09:32:41.719Z,52007.04
2019-04-06T09:35:50.295Z,52011.96
2019-04-06T09:38:58.820Z,51992.25
2019-04-06T09:42:07.517Z,51978.45
2019-04-06T09:45:47.355Z,51992.25
2019-04-06T09:49:23.796Z,51990.28
2019-04-06T09:53:02.733Z,51941.98
2019-04-06T09:56:19.256Z,51973.53
2019-04-06T09:59:57.600Z,51941.00
2019-04-06T10:03:22.574Z,51956.77
2019-04-06T10:06:54.105Z,51959.73
2019-04-06T10:10:20.532Z,51955.79
2019-04-06T10:13:53.600Z,51951.84
2019-04-06T10:17:17.796Z,51943.96
2019-04-06T10:20:51.955Z,51950.86
2019-04-06T10:24:18.493Z,51937.05
2019-04-06T10:27:41.959Z,51912.42
2019-04-06T10:31:08.505Z,51926.21
2019-04-06T10:34:36.120Z,51936.07
2019-04-06T10:38:03.643Z,51924.24
2019-04-06T10:41:37.469Z,51939.03
2019-04-06T10:45:04.081Z,51917.34
2019-04-06T10:48:20.270Z,51886.79
2019-04-06T10:51:46.093Z,51898.62
2019-04-06T10:55:13.678Z,51899.60
2019-04-06T10:58:39.185Z,51880.87
2019-04-06T11:02:27.935Z,51875.95
2019-04-06T11:05:53.220Z,51875.95
2019-04-06T11:09:32.750Z,51876.93
2019-04-06T11:13:33.537Z,51849.34
2019-04-06T11:17:19.282Z,51856.23
2019-04-06T11:20:44.949Z,51847.36
2019-04-06T11:24:36.319Z,51837.51
2019-04-06T11:28:04.335Z,51849.34
2019-04-06T11:31:34.752Z,51827.65
2019-04-06T11:35:03.097Z,51849.34
2019-04-06T11:38:48.050Z,51812.87
2019-04-06T11:42:27.593Z,51828.64
2019-04-06T11:45:48.735Z,51817.80
2019-04-06T11:49:04.859Z,51819.77
2019-04-06T11:52:49.748Z,51804.98
2019-04-06T11:56:05.294Z,51792.17
2019-04-06T11:59:28.632Z,51807.94
2019-04-06T12:02:59.997Z,51806.95
2019-04-06T12:06:27.496Z,51791.18
2019-04-06T12:10:19.658Z,51772.46
2019-04-06T12:13:47.090Z,51780.34
2019-04-06T12:17:14.870Z,51776.40
2019-04-06T12:20:36.929Z,51790.20
2019-04-06T12:24:12.988Z,51776.40
2019-04-06T12:27:47.495Z,51774.43
2019-04-06T12:31:07.342Z,51755.70
2019-04-06T12:34:33.919Z,51750.77
2019-04-06T12:38:02.782Z,51781.33
2019-04-06T12:41:23.948Z,51763.59
2019-04-06T12:44:50.055Z,51772.46
2019-04-06T12:48:52.680Z,51756.69
2019-04-06T12:52:19.521Z,51748.80
2019-04-06T12:55:43.918Z,51748.80
2019-04-06T12:59:25.723Z,51736.98
2019-04-06T13:03:02.146Z,51748.80
2019-04-06T13:06:39.297Z,51764.57
2019-04-06T13:10:05.870Z,51744.86
2019-04-06T13:13:20.295Z,51772.46
2019-04-06T13:16:48.031Z,51729.09
2019-04-06T13:20:11.690Z,51770.48
2019-04-06T13:23:37.962Z,51770.48
2019-04-06T13:27:12.155Z,51796.11
2019-04-06T13:30:48.567Z,51787.24
2019-04-06T13:34:15.151Z,51819.77
2019-04-06T13:37:31.810Z,51792.17
2019-04-06T13:41:02.257Z,51819.77
2019-04-06T13:44:36.382Z,51815.82
2019-04-06T13:48:03.879Z,51836.52
2019-04-06T13:51:53.266Z,51800.05
2019-04-06T13:55:25.530Z,51816.81
2019-04-06T13:58:55.220Z,51850.32
2019-04-06T14:02:20.507Z,51819.77
2019-04-06T14:05:46.628Z,51841.45
2019-04-06T14:09:02.031Z,51818.78
2019-04-06T14:12:23.266Z,51823.71
2019-04-06T14:15:45.987Z,51845.39
2019-04-06T14:19:13.382Z,51822.72
2019-04-06T14:22:42.436Z,51818.78
2019-04-06T14:26:08.467Z,51814.84
2019-04-06T14:29:38.482Z,51807.94
2019-04-06T14:32:57.174Z,51828.64
2019-04-06T14:36:23.144Z,51790.20
2019-04-06T14:39:56.680Z,51808.92
2019-04-06T14:43:39.751Z,51827.65
2019-04-06T14:46:59.868Z,51830.61
2019-04-06T14:50:30.672Z,51801.04
2019-04-06T14:54:32.666Z,51840.46
2019-04-06T14:58:07.118Z,51809.91
2019-04-06T15:01:45.415Z,51802.02
2019-04-06T15:05:00.054Z,51807.94
2019-04-06T15:08:27.519Z,51826.66
2019-04-06T15:11:45.835Z,51801.04
2019-04-06T15:15:21.234Z,51804.98
2019-04-06T15:18:52.413Z,51795.13
2019-04-06T15:22:18.303Z,51783.30
2019-04-06T15:25:35.699Z,51839.48
2019-04-06T15:29:36.934Z,51809.91
2019-04-06T15:33:21.473Z,51784.29
2019-04-06T15:36:48.649Z,51815.82
2019-04-06T15:40:21.607Z,51845.39
2019-04-06T15:43:54.887Z,51833.57
2019-04-06T15:47:37.447Z,51822.72
2019-04-06T15:51:17.020Z,51811.88
2019-04-06T15:54:34.745Z,51812.87
2019-04-06T15:57:50.130Z,51813.85
2019-04-06T16:01:20.505Z,51787.24
2019-04-06T16:04:58.933Z,51791.18
2019-04-06T16:08:13.591Z,51812.87
2019-04-06T16:12:00.520Z,51791.18
2019-04-06T16:15:26.167Z,51823.71
2019-04-06T16:19:26.542Z,51780.34
2019-04-06T16:22:56.962Z,51824.70
2019-04-06T16:26:29.085Z,51798.08
2019-04-06T16:30:11.323Z,51800.05
2019-04-06T16:34:03.431Z,51796.11
2019-04-06T16:37:52.637Z,51812.87
2019-04-06T16:41:44.614Z,51806.95
2019-04-06T16:44:58.701Z,51802.02
2019-04-06T16:48:29.162Z,51843.42
2019-04-06T16:51:54.916Z,51812.87
2019-04-06T16:55:25.847Z,51820.75
2019-04-06T16:59:08.474Z,51818.78
2019-04-06T17:02:50.834Z,51788.23
2019-04-06T17:06:30.551Z,51803.01
2019-04-06T17:10:02.216Z,51812.87
2019-04-06T17:13:29.583Z,51814.84
2019-04-06T17:17:21.254Z,51790.20
2019-04-06T17:20:53.391Z,51808.92
2019-04-06T17:24:10.344Z,51804.00
2019-04-06T17:27:57.242Z,51823.71
2019-04-06T17:31:30.830Z,51809.91
2019-04-06T17:34:59.581Z,51826.66
2019-04-06T17:38:18.067Z,51835.54
2019-04-06T17:41:34.069Z,51821.74
2019-04-06T17:45:09.101Z,51808.92
2019-04-06T17:48:32.286Z,51812.87
2019-04-06T17:52:11.845Z,51811.88
2019-04-06T17:55:37.326Z,51841.45
2019-04-06T17:58:58.396Z,51806.95
2019-04-06T18:02:17.945Z,51829.62
2019-04-06T18:05:45.863Z,51788.23
2019-04-06T18:09:13.035Z,51821.74
2019-04-06T18:12:32.423Z,51814.84
2019-04-06T18:15:41.665Z,51817.80
2019-04-06T18:18:50.314Z,51827.65
2019-04-06T18:21:58.867Z,51814.84
2019-04-06T18:25:07.608Z,51827.65
2019-04-06T18:28:16.147Z,51828.64
2019-04-06T18:32:02.994Z,51804.00
2019-04-06T18:35:13.078Z,51831.59
2019-04-06T18:38:31.920Z,51828.64
2019-04-06T18:41:40.870Z,51805.96
2019-04-06T18:44:49.861Z,51815.82
2019-04-06T18:47:58.478Z,51841.45
2019-04-06T18:51:07.022Z,51804.00
2019-04-06T18:54:15.675Z,51804.00
2019-04-06T18:57:24.233Z,51832.58
2019-04-06T19:00:43.547Z,51820.75
2019-04-06T19:04:02.449Z,51795.13
2019-04-06T19:07:11.178Z,51803.01
2019-04-06T19:10:20.309Z,51831.59
2019-04-06T19:13:39.428Z,51824.70
2019-04-06T19:16:48.214Z,51790.20
2019-04-06T19:19:56.752Z,51840.46
2019-04-06T19:23:05.294Z,51809.91
2019-04-06T19:26:14.057Z,51837.51
2019-04-06T19:29:22.699Z,51835.54
2019-04-06T19:32:31.259Z,51830.61
2019-04-06T19:35:40.505Z,51810.89
2019-04-06T19:38:49.614Z,51830.61
2019-04-06T19:41:58.373Z,51817.80
2019-04-06T19:45:07.828Z,51829.62
2019-04-06T19:48:26.847Z,51806.95
2019-04-06T19:51:36.477Z,51815.82
2019-04-06T19:54:46.059Z,51837.51
2019-04-06T19:57:54.937Z,51839.48
2019-04-06T20:01:03.512Z,51837.51
2019-04-06T20:04:12.168Z,51808.92
2019-04-06T20:07:20.717Z,51821.74
2019-04-06T20:10:29.559Z,51788.23
2019-04-06T20:13:38.185Z,51801.04
2019-04-06T20:16:46.712Z,51825.68
2019-04-06T20:19:55.344Z,51784.29
2019-04-06T20:23:14.120Z,51798.08
2019-04-06T20:26:23.201Z,51823.71
2019-04-06T20:29:31.793Z,51830.61
2019-04-06T20:32:40.918Z,51792.17
2019-04-06T20:35:59.891Z,51794.14
2019-04-06T20:39:10.353Z,51821.74
2019-04-06T20:42:19.969Z,51812.87
2019-04-06T20:45:28.591Z,51818.78
2019-04-06T20:48:37.213Z,51819.77
2019-04-06T20:51:58.658Z,51808.92
2019-04-06T20:55:07.213Z,51803.01
2019-04-06T20:58:15.775Z,51845.39
2019-04-06T21:01:34.622Z,51837.51
2019-04-06T21:04:43.164Z,51831.59
2019-04-06T21:07:51.677Z,51804.00
2019-04-06T21:11:00.327Z,51820.75
2019-04-06T21:14:09.010Z,51849.34
2019-04-06T21:17:17.527Z,51864.12
2019-04-06T21:20:36.862Z,51790.20
2019-04-06T21:23:56.086Z,51806.95
2019-04-06T21:27:15.239Z,51798.08
2019-04-06T21:30:24.738Z,51849.34
2019-04-06T21:33:35.118Z,51796.11
2019-04-06T21:36:43.672Z,51834.55
2019-04-06T21:40:02.519Z,51818.78
2019-04-06T21:43:11.099Z,51794.14
2019-04-06T21:46:19.752Z,51790.20
2019-04-06T21:49:28.868Z,51817.80
2019-04-06T21:52:38.675Z,51800.05
2019-04-06T21:55:47.470Z,51817.80
2019-04-06T21:58:56.198Z,51844.41
2019-04-06T22:02:07.046Z,51860.18
2019-04-06T22:05:15.929Z,51829.62
2019-04-06T22:08:24.964Z,51815.82
2019-04-06T22:11:34.147Z,51830.61
2019-04-06T22:14:53.117Z,51818.78
2019-04-06T22:18:03.471Z,51804.98
2019-04-06T22:21:12.524Z,51840.46
2019-04-06T22:24:31.748Z,51789.21
2019-04-06T22:27:40.323Z,51804.00
2019-04-06T22:30:48.936Z,51829.62
2019-04-06T22:33:57.597Z,51840.46
2019-04-06T22:37:06.252Z,51821.74
2019-04-06T22:40:15.550Z,51830.61
2019-04-06T22:43:24.186Z,51818.78
2019-04-06T22:46:32.951Z,51815.82
2019-04-06T22:49:41.605Z,51818.78
2019-04-06T22:52:50.439Z,51799.07
2019-04-06T22:55:59.197Z,51811.88
2019-04-06T22:59:07.746Z,51835.54
2019-04-06T23:02:16.728Z,51857.22
2019-04-06T23:05:31.061Z,51821.74
2019-04-06T23:08:40.684Z,51813.85
2019-04-06T23:11:49.312Z,51829.62
2019-04-06T23:14:57.963Z,51846.38
2019-04-06T23:18:07.065Z,51835.54
2019-04-06T23:21:15.820Z,51839.48
2019-04-06T23:24:25.246Z,51860.18
2019-04-06T23:27:33.867Z,51841.45
2019-04-06T23:30:42.575Z,51822.72
2019-04-06T23:34:02.311Z,51821.74
2019-04-06T23:37:11.057Z,51829.62
2019-04-06T23:40:19.368Z,51829.62
2019-04-06T23:43:28.020Z,51841.45
2019-04-06T23:46:36.698Z,51836.52
2019-04-06T23:49:45.397Z,51830.61
2019-04-06T23:52:54.039Z,51837.51
2019-04-06T23:56:12.854Z,51804.00
2019-04-06T23:59:22.151Z,51859.19
